Time;durP1;ratioP1;P1;durP2;ratioP2;P2;SDS_P1;SDS_P2;PMS_P1;PMS_P2;Temp;Humidity;BMP_temperature;BMP_pressure;BME280_temperature;BME280_humidity;BME280_pressure;Samples;Min_cycle;Max_cycle;Signal;HPM_P1;HPM_P2
2021/03/15 00:03:17;;;;;;;0.90;0.70;;;;;;;3.42;100.00;98722.41;3867021;76;391900;-79
2021/03/15 00:08:38;;;;;;;1.30;0.73;;;;;;;3.43;100.00;98719.10;3866780;76;393998;-79
2021/03/15 00:13:59;;;;;;;2.03;1.30;;;;;;;3.26;100.00;98716.84;3866436;76;396081;-79
2021/03/15 00:19:20;;;;;;;2.60;1.23;;;;;;;3.24;100.00;98716.41;3866561;76;396367;-79
2021/03/15 00:24:41;;;;;;;1.17;0.70;;;;;;;3.11;100.00;98711.52;3867153;76;389121;-79
2021/03/15 00:30:04;;;;;;;0.90;0.60;;;;;;;3.08;100.00;98710.86;3867491;76;383818;-79
2021/03/15 00:35:25;;;;;;;1.43;1.10;;;;;;;3.04;100.00;98702.64;3867322;76;383570;-79
2021/03/15 00:40:46;;;;;;;0.80;0.40;;;;;;;3.09;100.00;98693.41;3867645;76;383582;-80
2021/03/15 00:46:08;;;;;;;0.83;0.50;;;;;;;3.08;100.00;98687.18;3867448;76;383602;-79
2021/03/15 00:51:29;;;;;;;2.13;1.03;;;;;;;3.01;100.00;98696.55;3867158;76;383857;-79
2021/03/15 00:56:50;;;;;;;1.73;1.17;;;;;;;3.01;100.00;98698.50;3867029;76;383581;-79
2021/03/15 01:02:12;;;;;;;1.27;1.17;;;;;;;2.96;100.00;98690.63;3831375;76;383815;-78
2021/03/15 01:07:33;;;;;;;0.80;0.50;;;;;;;2.97;100.00;98686.77;3829504;76;383843;-79
2021/03/15 01:12:54;;;;;;;0.90;0.70;;;;;;;3.08;100.00;98683.10;3829248;75;391888;-79
2021/03/15 01:18:16;;;;;;;0.97;0.87;;;;;;;3.10;100.00;98682.77;3829561;76;383575;-79
2021/03/15 01:23:37;;;;;;;3.20;2.40;;;;;;;3.11;100.00;98671.52;3828598;76;389841;-79
2021/03/15 01:28:59;;;;;;;0.90;0.80;;;;;;;3.17;100.00;98663.28;3829564;76;383625;-79
2021/03/15 01:34:20;;;;;;;0.93;0.80;;;;;;;3.27;100.00;98660.75;3829520;76;383830;-80
2021/03/15 01:39:41;;;;;;;0.80;0.60;;;;;;;3.37;100.00;98655.30;3829495;76;383567;-80
2021/03/15 01:45:03;;;;;;;1.03;0.70;;;;;;;3.50;100.00;98655.33;3829145;76;389821;-79
2021/03/15 01:50:25;;;;;;;1.93;0.83;;;;;;;3.53;100.00;98654.61;3829275;76;383535;-79
2021/03/15 01:55:48;;;;;;;0.80;0.60;;;;;;;3.46;100.00;98651.19;3829549;75;383784;-80
2021/03/15 02:01:09;;;;;;;1.50;1.20;;;;;;;3.47;100.00;98646.55;3851410;76;391918;-80
2021/03/15 02:06:31;;;;;;;1.17;0.93;;;;;;;3.36;100.00;98646.34;3866804;76;391912;-80
2021/03/15 02:12:08;;;;;;;0.90;0.80;;;;;;;3.30;100.00;98645.67;3867136;76;391973;-80
2021/03/15 02:17:50;;;;;;;2.20;0.93;;;;;;;3.22;100.00;98646.70;3866686;75;395021;-81
2021/03/15 02:23:28;;;;;;;0.80;0.50;;;;;;;3.13;100.00;98630.39;3867804;75;383586;-80
2021/03/15 02:28:54;;;;;;;1.67;1.57;;;;;;;3.17;100.00;98631.48;3866857;76;396084;-80
2021/03/15 02:34:41;;;;;;;1.20;1.10;;;;;;;3.12;100.00;98619.31;3866918;75;396125;-79
2021/03/15 02:40:08;;;;;;;2.63;1.60;;;;;;;3.16;100.00;98623.11;3866613;75;394094;-80
2021/03/15 02:45:32;;;;;;;0.80;0.40;;;;;;;3.18;100.00;98607.79;3867627;76;383838;-80
2021/03/15 02:50:55;;;;;;;0.80;0.50;;;;;;;3.18;100.00;98599.64;3867700;76;383850;-80
2021/03/15 02:56:22;;;;;;;1.67;1.10;;;;;;;3.09;100.00;98584.73;3866475;76;393963;-80
2021/03/15 03:01:47;;;;;;;4.87;2.37;;;;;;;3.03;100.00;98581.52;3866663;75;395041;-80
2021/03/15 03:07:08;;;;;;;0.90;0.80;;;;;;;3.06;100.00;98567.78;3867380;76;391907;-80
2021/03/15 03:12:30;;;;;;;1.03;0.93;;;;;;;3.04;100.00;98560.00;3867708;76;383546;-81
2021/03/15 03:17:53;;;;;;;2.50;1.03;;;;;;;3.35;100.00;98568.66;3866854;76;395261;-80
2021/03/15 03:23:14;;;;;;;1.20;1.00;;;;;;;3.44;100.00;98554.83;3866773;76;387795;-80
2021/03/15 03:28:37;;;;;;;1.27;1.17;;;;;;;3.40;100.00;98562.13;3867543;76;383854;-80
2021/03/15 03:34:01;;;;;;;2.80;1.63;;;;;;;3.40;100.00;98541.19;3867055;76;389922;-80
2021/03/15 03:39:23;;;;;;;8.40;1.40;;;;;;;3.24;100.00;98524.24;3866735;76;393959;-80
2021/03/15 03:44:45;;;;;;;2.90;0.90;;;;;;;3.31;100.00;98524.94;3866952;76;394027;-80
2021/03/15 03:50:09;;;;;;;2.53;1.10;;;;;;;3.35;100.00;98523.04;3867558;76;383594;-79
2021/03/15 03:55:45;;;;;;;1.40;1.30;;;;;;;3.22;100.00;98521.69;3867507;76;387822;-80
2021/03/15 04:01:09;;;;;;;1.10;1.00;;;;;;;3.21;100.00;98507.30;3866111;76;391904;-80
2021/03/15 04:06:35;;;;;;;1.60;1.40;;;;;;;3.21;100.00;98507.88;3866617;75;396102;-79
2021/03/15 04:11:58;;;;;;;1.67;0.73;;;;;;;3.23;100.00;98502.88;3867045;76;387975;-80
2021/03/15 04:17:22;;;;;;;2.13;1.80;;;;;;;3.26;100.00;98492.61;3866348;75;394996;-80
2021/03/15 04:22:49;;;;;;;7.03;2.03;;;;;;;3.19;100.00;98493.87;3866700;75;395272;-80
2021/03/15 04:28:11;;;;;;;5.10;2.77;;;;;;;3.27;100.00;98485.44;3866227;76;396071;-79
2021/03/15 04:33:33;;;;;;;3.33;1.77;;;;;;;3.12;100.00;98486.17;3866760;76;384030;-80
2021/03/15 04:38:57;;;;;;;2.60;1.93;;;;;;;3.07;100.00;98480.47;3866227;76;396136;-80
2021/03/15 04:44:20;;;;;;;1.63;1.40;;;;;;;2.97;100.00;98480.30;3867132;76;391897;-79
2021/03/15 04:49:42;;;;;;;2.30;2.20;;;;;;;2.96;100.00;98472.74;3866949;75;391951;-79
2021/03/15 04:55:03;;;;;;;2.43;2.23;;;;;;;2.96;100.00;98470.03;3866552;76;396144;-80
2021/03/15 05:00:26;;;;;;;2.33;2.13;;;;;;;3.01;100.00;98458.84;3866536;76;396094;-80
2021/03/15 05:05:48;;;;;;;1.83;1.57;;;;;;;3.01;100.00;98462.91;3866403;76;393964;-79
2021/03/15 05:11:10;;;;;;;2.83;2.17;;;;;;;3.03;100.00;98465.29;3866945;76;385610;-80
2021/03/15 05:16:40;;;;;;;2.40;2.20;;;;;;;3.07;100.00;98467.47;3866600;76;395060;-80
2021/03/15 05:22:02;;;;;;;5.20;2.43;;;;;;;3.09;100.00;98463.23;3866147;76;396118;-80
2021/03/15 05:27:24;;;;;;;1.90;1.80;;;;;;;3.04;100.00;98460.03;3866568;76;396364;-80
2021/03/15 05:32:53;;;;;;;2.13;1.83;;;;;;;3.08;100.00;98444.59;3867164;76;383574;-80
2021/03/15 05:38:16;;;;;;;18.67;2.23;;;;;;;3.04;100.00;98445.09;3866077;76;396181;-79
2021/03/15 05:44:02;;;;;;;3.23;1.40;;;;;;;3.03;100.00;98440.25;3866822;76;392098;-80
2021/03/15 05:49:58;;;;;;;3.57;2.13;;;;;;;3.12;100.00;98443.50;3866277;76;396286;-80
2021/03/15 05:55:34;;;;;;;3.73;1.60;;;;;;;3.14;100.00;98430.33;3866809;76;383633;-79
2021/03/15 06:01:17;;;;;;;1.00;0.90;;;;;;;3.28;100.00;98435.97;3867115;75;391901;-79
2021/03/15 06:06:40;;;;;;;1.40;0.87;;;;;;;3.35;100.00;98431.98;3866802;76;393975;-80
2021/03/15 06:12:04;;;;;;;1.00;0.83;;;;;;;3.40;100.00;98431.09;3867033;76;392984;-80
2021/03/15 06:17:26;;;;;;;0.80;0.50;;;;;;;3.48;100.00;98421.88;3868261;75;383825;-80
2021/03/15 06:22:48;;;;;;;2.80;1.10;;;;;;;3.53;100.00;98409.31;3867020;75;390855;-81
2021/03/15 06:28:12;;;;;;;1.73;1.63;;;;;;;3.53;100.00;98400.38;3867529;76;387787;-81
2021/03/15 06:33:35;;;;;;;0.80;0.70;;;;;;;3.44;100.00;98382.97;3868365;76;383830;-80
2021/03/15 06:38:57;;;;;;;1.50;1.40;;;;;;;3.42;100.00;98381.22;3866908;76;395073;-80
2021/03/15 06:44:18;;;;;;;1.50;1.40;;;;;;;3.42;100.00;98376.34;3866665;76;391947;-81
2021/03/15 06:49:39;;;;;;;1.37;1.20;;;;;;;3.44;100.00;98359.86;3867773;76;383862;-81
2021/03/15 06:55:03;;;;;;;1.73;1.27;;;;;;;3.53;100.00;98358.23;3866557;76;396118;-82
2021/03/15 07:00:30;;;;;;;1.43;1.20;;;;;;;3.59;100.00;98362.19;3866906;75;394007;-81
2021/03/15 07:05:57;;;;;;;1.27;1.13;;;;;;;3.52;100.00;98364.23;3867433;76;385654;-81
2021/03/15 07:11:20;;;;;;;3.13;1.40;;;;;;;3.53;100.00;98362.31;3867545;76;391915;-80
2021/03/15 07:16:41;;;;;;;7.80;0.97;;;;;;;3.51;100.00;98359.17;3867829;76;383578;-80
2021/03/15 07:22:20;;;;;;;0.90;0.50;;;;;;;3.51;100.00;98352.38;3867992;76;383606;-81
2021/03/15 07:27:44;;;;;;;0.80;0.60;;;;;;;3.45;100.00;98356.59;3851164;76;383546;-81
2021/03/15 07:33:17;;;;;;;1.53;1.43;;;;;;;3.48;100.00;98359.91;3867439;76;383822;-81
2021/03/15 07:38:38;;;;;;;0.80;0.60;;;;;;;3.51;100.00;98359.98;3867591;76;383839;-81
2021/03/15 07:44:00;;;;;;;2.90;1.17;;;;;;;3.55;100.00;98360.02;3866487;76;391897;-81
2021/03/15 07:49:26;;;;;;;1.67;0.90;;;;;;;3.60;100.00;98365.11;3867002;76;394358;-80
2021/03/15 07:54:47;;;;;;;2.70;1.20;;;;;;;3.67;100.00;98371.99;3866524;75;396274;-81
2021/03/15 08:00:09;;;;;;;0.90;0.50;;;;;;;3.64;100.00;98364.00;3867642;76;383578;-80
2021/03/15 08:05:30;;;;;;;4.83;1.37;;;;;;;3.71;100.00;98364.67;3867290;75;389995;-81
2021/03/15 08:10:52;;;;;;;0.80;0.50;;;;;;;3.74;100.00;98365.27;3868528;76;383581;-81
2021/03/15 08:16:15;;;;;;;1.20;0.60;;;;;;;3.84;100.00;98367.33;3867550;76;389910;-81
2021/03/15 08:21:39;;;;;;;1.33;1.23;;;;;;;3.92;100.00;98367.61;3867116;76;396102;-81
2021/03/15 08:27:04;;;;;;;1.87;0.70;;;;;;;3.96;100.00;98378.15;3867574;76;390119;-81
2021/03/15 08:32:28;;;;;;;2.20;0.97;;;;;;;4.08;100.00;98370.30;3867184;76;395325;-81
2021/03/15 08:38:00;;;;;;;1.77;0.83;;;;;;;4.16;100.00;98380.89;3867204;76;393991;-81
2021/03/15 08:43:26;;;;;;;1.00;0.80;;;;;;;4.13;100.00;98382.98;3867606;76;392110;-81
2021/03/15 08:48:53;;;;;;;0.80;0.40;;;;;;;4.15;100.00;98380.69;3868250;76;383590;-82
2021/03/15 08:54:16;;;;;;;1.53;1.10;;;;;;;4.14;100.00;98372.31;3867125;76;395053;-81
2021/03/15 08:59:37;;;;;;;8.20;1.17;;;;;;;4.28;100.00;98374.39;3867297;76;389864;-81
2021/03/15 09:05:01;;;;;;;1.03;0.93;;;;;;;4.40;100.00;98370.05;3844751;76;392896;-80
2021/03/15 09:10:35;;;;;;;0.87;0.47;;;;;;;4.58;100.00;98379.13;3829922;76;383830;-80
2021/03/15 09:15:56;;;;;;;0.90;0.63;;;;;;;4.63;100.00;98377.43;3828535;76;383570;-80
2021/03/15 09:21:30;;;;;;;1.00;0.90;;;;;;;4.88;100.00;98384.63;3829795;76;383539;-80
2021/03/15 09:26:51;;;;;;;1.23;1.07;;;;;;;4.82;100.00;98403.85;3829089;75;391913;-80
2021/03/15 09:32:12;;;;;;;0.90;0.63;;;;;;;4.62;100.00;98388.89;3829639;75;383795;-80
2021/03/15 09:37:34;;;;;;;0.80;0.47;;;;;;;4.56;100.00;98394.48;3829478;76;383539;-80
2021/03/15 09:42:56;;;;;;;0.80;0.50;;;;;;;4.66;100.00;98395.73;3829684;75;383787;-80
2021/03/15 09:48:20;;;;;;;0.90;0.60;;;;;;;4.74;100.00;98400.28;3829651;76;383878;-80
2021/03/15 09:53:46;;;;;;;1.27;0.60;;;;;;;5.17;100.00;98406.24;3829485;76;383582;-80
2021/03/15 09:59:13;;;;;;;0.90;0.50;;;;;;;5.13;100.00;98410.88;3829663;75;383623;-80
2021/03/15 10:04:37;;;;;;;1.00;0.90;;;;;;;5.28;100.00;98413.12;3844880;75;383799;-80
2021/03/15 10:10:01;;;;;;;0.80;0.40;;;;;;;5.37;100.00;98414.33;3868107;76;383577;-80
2021/03/15 10:15:22;;;;;;;0.90;0.50;;;;;;;5.56;100.00;98414.86;3868304;76;383602;-79
2021/03/15 10:20:44;;;;;;;1.00;0.60;;;;;;;5.53;100.00;98413.48;3867589;76;383803;-80
2021/03/15 10:26:06;;;;;;;0.87;0.50;;;;;;;5.92;100.00;98415.22;3867814;76;383775;-80
2021/03/15 10:31:27;;;;;;;0.80;0.40;;;;;;;6.23;100.00;98425.45;3867978;76;383582;-80
2021/03/15 10:36:49;;;;;;;0.90;0.47;;;;;;;6.35;100.00;98431.94;3868073;76;383574;-79
2021/03/15 10:42:11;;;;;;;0.80;0.50;;;;;;;6.12;100.00;98421.93;3868049;76;383864;-79
2021/03/15 10:47:37;;;;;;;1.27;0.80;;;;;;;6.27;100.00;98421.36;3867952;76;384800;-79
2021/03/15 10:53:01;;;;;;;0.80;0.50;;;;;;;6.45;100.00;98433.91;3867952;76;384521;-79
2021/03/15 10:58:22;;;;;;;6.23;1.00;;;;;;;6.70;100.00;98427.91;3865664;76;383956;-80
2021/03/15 11:03:44;;;;;;;0.87;0.47;;;;;;;6.72;100.00;98440.56;3867912;75;384536;-79
2021/03/15 11:09:05;;;;;;;0.80;0.40;;;;;;;6.78;100.00;98450.73;3868023;76;384784;-80
2021/03/15 11:14:26;;;;;;;0.80;0.50;;;;;;;6.63;100.00;98455.20;3867666;76;384509;-79
2021/03/15 11:19:53;;;;;;;0.90;0.70;;;;;;;6.98;100.00;98459.34;3867867;76;383799;-80
2021/03/15 11:25:16;;;;;;;1.63;1.00;;;;;;;6.78;100.00;98471.83;3866822;76;392846;-79
2021/03/15 11:30:37;;;;;;;0.80;0.47;;;;;;;6.43;100.00;98485.42;3867896;76;383582;-79
2021/03/15 11:36:00;;;;;;;1.10;1.00;;;;;;;6.34;100.00;98476.80;3867125;76;392141;-79
2021/03/15 11:41:27;;;;;;;1.53;1.43;;;;;;;7.04;100.00;98472.80;3866715;76;392856;-80
2021/03/15 11:46:51;;;;;;;1.93;1.13;;;;;;;8.84;100.00;98473.61;3866747;76;394984;-81
2021/03/15 11:52:12;;;;;;;0.87;0.50;;;;;;;9.14;99.30;98475.14;3867922;76;384505;-81
2021/03/15 11:57:33;;;;;;;1.37;0.83;;;;;;;10.12;96.27;98478.33;3867290;76;384794;-80
2021/03/15 12:02:55;;;;;;;0.90;0.63;;;;;;;8.32;92.08;98485.48;3867987;76;383611;-81
2021/03/15 12:08:17;;;;;;;0.80;0.40;;;;;;;7.65;97.78;98495.84;3832335;76;384564;-80
2021/03/15 12:13:38;;;;;;;0.80;0.50;;;;;;;7.49;100.00;98489.20;3829474;76;384626;-80
2021/03/15 12:18:59;;;;;;;1.10;0.97;;;;;;;7.29;100.00;98490.80;3828902;76;392890;-80
2021/03/15 12:24:20;;;;;;;0.80;0.40;;;;;;;7.15;100.00;98491.58;3829331;75;383586;-81
2021/03/15 12:29:41;;;;;;;0.80;0.50;;;;;;;7.28;94.87;98491.36;3829294;76;384552;-81
2021/03/15 12:35:05;;;;;;;2.33;0.63;;;;;;;7.44;98.05;98497.81;3829175;76;385017;-81
2021/03/15 12:40:27;;;;;;;0.80;0.40;;;;;;;7.79;91.94;98493.66;3829494;76;384756;-80
2021/03/15 12:45:49;;;;;;;1.20;0.83;;;;;;;7.85;89.82;98493.44;3829020;76;388735;-81
2021/03/15 12:51:10;;;;;;;0.80;0.53;;;;;;;7.90;91.44;98496.56;3829316;76;384737;-81
2021/03/15 12:56:31;;;;;;;4.30;0.70;;;;;;;8.00;87.71;98499.84;3828708;75;390830;-81
2021/03/15 13:01:52;;;;;;;2.50;0.80;;;;;;;8.84;81.56;98496.92;3828607;76;395201;-81
2021/03/15 13:07:14;;;;;;;0.80;0.50;;;;;;;10.25;75.17;98504.10;3852205;76;384503;-81
2021/03/15 13:12:35;;;;;;;0.90;0.60;;;;;;;11.29;60.96;98496.52;3867812;76;383570;-81
2021/03/15 13:17:56;;;;;;;2.73;1.60;;;;;;;10.69;63.93;98504.10;3867173;76;384757;-80
2021/03/15 13:23:17;;;;;;;0.90;0.60;;;;;;;9.88;64.99;98506.82;3867810;76;384509;-80
2021/03/15 13:28:39;;;;;;;0.90;0.43;;;;;;;8.97;67.58;98502.12;3867776;76;384794;-80
2021/03/15 13:34:01;;;;;;;2.50;0.73;;;;;;;8.38;67.16;98519.51;3867311;76;384511;-81
2021/03/15 13:39:22;;;;;;;1.00;0.60;;;;;;;8.12;73.42;98530.92;3867741;76;384561;-81
2021/03/15 13:44:43;;;;;;;0.80;0.40;;;;;;;7.21;81.28;98547.44;3867676;76;384772;-82
2021/03/15 13:50:04;;;;;;;1.07;0.90;;;;;;;7.06;85.48;98538.84;3867254;76;393106;-82
2021/03/15 13:55:26;;;;;;;1.07;0.80;;;;;;;7.50;87.05;98535.34;3867350;76;385668;-81
2021/03/15 14:00:48;;;;;;;0.90;0.60;;;;;;;8.83;71.77;98525.53;3867788;76;383585;-82
2021/03/15 14:06:11;;;;;;;0.83;0.47;;;;;;;9.61;72.07;98510.82;3867718;74;383574;-82
2021/03/15 14:11:32;;;;;;;1.40;0.97;;;;;;;10.75;67.78;98505.19;3867062;76;388738;-81
2021/03/15 14:16:53;;;;;;;0.90;0.57;;;;;;;11.24;63.31;98503.09;3867458;76;388922;-81
2021/03/15 14:22:15;;;;;;;0.90;0.50;;;;;;;10.92;58.91;98509.67;3867696;76;384558;-81
2021/03/15 14:27:36;;;;;;;0.80;0.47;;;;;;;10.20;62.85;98511.41;3867453;76;384512;-80
2021/03/15 14:32:57;;;;;;;0.90;0.80;;;;;;;10.52;61.56;98507.09;3867602;76;383614;-81
2021/03/15 14:38:19;;;;;;;0.90;0.60;;;;;;;10.99;63.73;98515.67;3867598;76;384775;-81
2021/03/15 14:43:40;;;;;;;0.80;0.40;;;;;;;10.14;62.61;98514.43;3867776;76;384503;-81
2021/03/15 14:49:03;;;;;;;1.37;0.60;;;;;;;9.47;63.25;98522.52;3867268;76;384854;-80
2021/03/15 14:54:24;;;;;;;2.83;0.67;;;;;;;9.16;65.74;98516.69;3867519;76;383759;-80
2021/03/15 14:59:45;;;;;;;0.90;0.70;;;;;;;8.96;66.65;98519.78;3867632;76;384512;-80
2021/03/15 15:05:07;;;;;;;3.27;0.90;;;;;;;9.07;67.20;98516.96;3867320;76;389740;-80
2021/03/15 15:10:29;;;;;;;3.53;0.87;;;;;;;9.47;65.81;98519.00;3866901;76;394928;-80
2021/03/15 15:15:50;;;;;;;0.80;0.40;;;;;;;9.37;65.47;98528.09;3867935;76;384540;-80
2021/03/15 15:21:12;;;;;;;0.97;0.80;;;;;;;9.25;66.48;98531.34;3815896;73;384574;-79
2021/03/15 15:26:33;;;;;;;0.90;0.60;;;;;;;9.16;66.93;98529.03;3908464;73;384621;-80
2021/03/15 15:31:54;;;;;;;1.33;0.83;;;;;;;9.66;63.52;98536.45;3908343;74;393999;-80
2021/03/15 15:37:18;;;;;;;1.13;1.03;;;;;;;9.62;63.11;98518.45;3908618;74;386060;-79
2021/03/15 15:42:39;;;;;;;0.97;0.50;;;;;;;9.18;61.65;98539.59;3908777;74;383763;-80
2021/03/15 15:48:00;;;;;;;1.23;1.13;;;;;;;9.74;60.18;98536.58;3908643;74;386608;-80
2021/03/15 15:53:21;;;;;;;4.00;2.20;;;;;;;9.59;61.93;98545.37;3908277;74;384840;-81
2021/03/15 15:58:43;;;;;;;1.03;0.80;;;;;;;9.62;62.05;98549.45;3908450;74;384503;-79
2021/03/15 16:04:05;;;;;;;1.27;0.90;;;;;;;8.82;66.68;98552.77;3908131;74;384782;-79
2021/03/15 16:09:26;;;;;;;1.23;1.13;;;;;;;9.30;65.01;98557.73;3908265;74;384531;-81
2021/03/15 16:14:48;;;;;;;2.60;1.27;;;;;;;8.93;66.87;98563.09;3791099;76;388663;-80
2021/03/15 16:20:10;;;;;;;0.90;0.60;;;;;;;8.97;65.68;98565.21;3896372;74;388656;-80
2021/03/15 16:25:34;;;;;;;1.57;1.40;;;;;;;9.69;62.20;98560.98;3883343;74;390874;-81
2021/03/15 16:30:56;;;;;;;0.83;0.60;;;;;;;9.25;64.46;98569.16;3885046;75;384528;-81
2021/03/15 16:36:17;;;;;;;2.17;1.30;;;;;;;8.64;65.11;98577.34;3884972;74;395001;-81
2021/03/15 16:41:39;;;;;;;3.47;3.27;;;;;;;8.46;66.57;98577.99;3774290;76;385528;-81
2021/03/15 16:47:01;;;;;;;1.30;0.83;;;;;;;8.48;66.91;98591.33;3742820;77;390798;-81
2021/03/15 16:52:22;;;;;;;1.57;1.00;;;;;;;8.39;68.13;98588.22;3728227;78;386686;-81
2021/03/15 16:57:43;;;;;;;0.80;0.60;;;;;;;8.40;68.26;98589.19;3743723;78;384815;-81
2021/03/15 17:03:06;;;;;;;1.23;0.80;;;;;;;8.24;68.29;98601.17;3744160;77;384755;-81
2021/03/15 17:08:27;;;;;;;1.20;1.10;;;;;;;8.08;67.84;98607.63;3744121;78;384511;-81
2021/03/15 17:13:49;;;;;;;2.40;1.83;;;;;;;7.97;69.96;98618.41;3743501;78;384515;-80
2021/03/15 17:19:10;;;;;;;1.00;0.70;;;;;;;7.96;70.13;98625.83;3744794;77;387744;-81
2021/03/15 17:24:32;;;;;;;0.90;0.60;;;;;;;7.89;69.00;98638.77;3890146;75;384516;-80
2021/03/15 17:29:54;;;;;;;2.07;1.20;;;;;;;7.83;70.04;98662.24;3760247;77;393983;-81
2021/03/15 17:35:15;;;;;;;1.73;1.27;;;;;;;7.69;71.06;98660.08;3888713;75;391932;-80
2021/03/15 17:40:36;;;;;;;0.90;0.60;;;;;;;7.53;72.54;98674.13;3890839;74;384541;-80
2021/03/15 17:45:58;;;;;;;2.73;1.13;;;;;;;7.57;72.35;98687.81;3889803;75;392911;-82
2021/03/15 17:51:19;;;;;;;3.80;2.30;;;;;;;7.22;78.37;98703.56;3889678;74;384551;-80
2021/03/15 17:56:41;;;;;;;0.90;0.50;;;;;;;6.88;83.50;98708.33;3786878;76;383581;-83
2021/03/15 18:02:02;;;;;;;0.90;0.50;;;;;;;6.34;99.02;98739.03;3890405;75;383589;-82
2021/03/15 18:07:25;;;;;;;1.43;0.80;;;;;;;5.71;100.00;98724.03;3760659;77;383624;-81
2021/03/15 18:12:47;;;;;;;1.20;0.60;;;;;;;5.36;100.00;98735.97;3890056;74;383577;-81
2021/03/15 18:18:09;;;;;;;0.80;0.40;;;;;;;5.21;100.00;98743.76;3890648;74;383570;-81
2021/03/15 18:23:32;;;;;;;0.80;0.40;;;;;;;5.09;100.00;98751.42;3761204;76;383569;-81
2021/03/15 18:28:53;;;;;;;0.80;0.47;;;;;;;5.04;100.00;98761.27;3889270;75;383569;-81
2021/03/15 18:34:14;;;;;;;0.87;0.63;;;;;;;4.98;100.00;98769.58;3890646;74;383794;-81
2021/03/15 18:39:36;;;;;;;0.87;0.57;;;;;;;5.00;100.00;98772.73;3890491;74;383826;-81
2021/03/15 18:45:00;;;;;;;0.93;0.70;;;;;;;4.93;100.00;98785.67;3761035;77;383553;-81
2021/03/15 18:50:21;;;;;;;0.80;0.60;;;;;;;4.90;100.00;98785.62;3889133;75;383539;-81
2021/03/15 18:55:44;;;;;;;0.97;0.57;;;;;;;4.88;100.00;98796.11;3890479;74;383538;-81
2021/03/15 19:01:07;;;;;;;0.80;0.50;;;;;;;4.82;100.00;98797.00;3890538;74;383802;-81
2021/03/15 19:06:28;;;;;;;15.43;0.80;;;;;;;4.73;100.00;98807.97;3890401;74;383606;-80
2021/03/15 19:11:49;;;;;;;0.90;0.70;;;;;;;4.73;100.00;98816.14;3890593;74;383885;-81
2021/03/15 19:17:10;;;;;;;0.80;0.50;;;;;;;4.79;100.00;98816.02;3760992;77;383577;-81
2021/03/15 19:22:31;;;;;;;18.93;1.60;;;;;;;4.71;100.00;98814.34;3893470;74;397135;-81
2021/03/15 19:27:56;;;;;;;1.60;1.50;;;;;;;4.52;100.00;98822.64;3896161;74;383578;-81
2021/03/15 19:33:19;;;;;;;1.10;0.90;;;;;;;4.60;100.00;98831.13;3897330;72;390006;-81
2021/03/15 19:38:39;;;;;;;0.90;0.70;;;;;;;4.63;100.00;98832.33;3774663;76;383845;-81
2021/03/15 19:44:02;;;;;;;0.80;0.40;;;;;;;4.56;100.00;98833.00;3896369;74;383574;-81
2021/03/15 19:49:23;;;;;;;2.27;0.67;;;;;;;4.41;100.00;98844.83;3765001;77;384012;-81
2021/03/15 19:54:44;;;;;;;7.80;1.07;;;;;;;4.44;100.00;98847.39;3895362;74;398114;-81
2021/03/15 20:00:06;;;;;;;2.07;1.43;;;;;;;4.37;100.00;98844.55;3895238;74;396290;-81
2021/03/15 20:05:28;;;;;;;0.80;0.50;;;;;;;4.40;100.00;98853.37;3749626;78;383863;-81
2021/03/15 20:10:50;;;;;;;0.80;0.50;;;;;;;4.34;100.00;98866.50;3896369;74;383881;-80
2021/03/15 20:16:11;;;;;;;1.13;0.90;;;;;;;4.31;100.00;98868.58;3895883;74;391915;-80
2021/03/15 20:21:33;;;;;;;0.90;0.80;;;;;;;4.35;100.00;98880.88;3897938;74;383803;-80
2021/03/15 20:26:54;;;;;;;0.80;0.60;;;;;;;4.33;100.00;98885.34;3774845;76;383639;-80
2021/03/15 20:32:15;;;;;;;1.27;0.53;;;;;;;4.36;100.00;98895.48;3743239;78;383577;-81
2021/03/15 20:37:38;;;;;;;0.80;0.50;;;;;;;4.25;100.00;98899.98;3743516;78;383566;-81
2021/03/15 20:42:59;;;;;;;0.97;0.87;;;;;;;4.21;100.00;98907.87;3743090;78;391943;-81
2021/03/15 20:48:21;;;;;;;0.90;0.63;;;;;;;4.23;100.00;98910.44;3743381;78;383858;-81
2021/03/15 20:53:42;;;;;;;1.57;1.23;;;;;;;4.24;100.00;98897.04;3742754;78;383817;-81
2021/03/15 20:59:04;;;;;;;0.80;0.50;;;;;;;4.15;100.00;98899.20;3743303;77;383838;-81
2021/03/15 21:04:26;;;;;;;0.90;0.73;;;;;;;4.17;100.00;98916.53;3743293;77;383782;-81
2021/03/15 21:09:48;;;;;;;1.97;1.77;;;;;;;4.04;100.00;98920.58;3742545;77;396146;-81
2021/03/15 21:15:12;;;;;;;0.80;0.50;;;;;;;4.05;100.00;98927.59;3743437;78;383801;-81
2021/03/15 21:20:34;;;;;;;0.83;0.50;;;;;;;4.09;100.00;98933.87;3743572;78;383633;-81
2021/03/15 21:25:56;;;;;;;1.43;0.80;;;;;;;4.08;100.00;98938.55;3721594;77;394246;-81
2021/03/15 21:31:17;;;;;;;0.90;0.60;;;;;;;4.12;100.00;98936.66;3721342;78;387701;-80
2021/03/15 21:36:38;;;;;;;1.00;0.70;;;;;;;4.19;100.00;98947.72;3854087;75;388022;-81
2021/03/15 21:41:59;;;;;;;0.80;0.40;;;;;;;4.24;100.00;98943.91;3855464;75;383579;-80
2021/03/15 21:47:20;;;;;;;1.90;1.80;;;;;;;4.30;100.00;98937.78;3854070;75;396090;-81
2021/03/15 21:52:41;;;;;;;0.93;0.83;;;;;;;4.29;100.00;98944.38;3855167;75;383909;-80
2021/03/15 21:58:03;;;;;;;1.10;0.67;;;;;;;4.38;100.00;98942.21;3855036;75;383827;-81
2021/03/15 22:03:24;;;;;;;0.80;0.50;;;;;;;4.42;100.00;98940.35;3855221;75;383858;-81
2021/03/15 22:08:45;;;;;;;0.90;0.60;;;;;;;4.39;100.00;98942.43;3855369;75;383582;-80
2021/03/15 22:14:07;;;;;;;0.97;0.80;;;;;;;4.34;100.00;98948.19;3855315;75;383586;-81
2021/03/15 22:19:29;;;;;;;0.83;0.57;;;;;;;4.42;100.00;98959.42;3855412;75;383578;-81
2021/03/15 22:24:52;;;;;;;1.20;1.10;;;;;;;4.35;100.00;98970.74;3873852;75;394037;-81
2021/03/15 22:30:14;;;;;;;0.80;0.57;;;;;;;4.35;100.00;98966.66;3773837;77;383786;-80
2021/03/15 22:35:37;;;;;;;1.00;0.90;;;;;;;4.38;100.00;98969.45;3750183;77;391947;-81
2021/03/15 22:40:58;;;;;;;1.67;0.97;;;;;;;4.27;100.00;98979.37;3895747;74;389821;-81
2021/03/15 22:46:20;;;;;;;1.10;0.50;;;;;;;4.07;100.00;98982.47;3896596;74;387985;-80
2021/03/15 22:51:42;;;;;;;0.90;0.60;;;;;;;4.25;100.00;98981.66;3896683;74;388099;-81
2021/03/15 22:57:05;;;;;;;5.10;2.23;;;;;;;4.14;100.00;98986.69;3895441;74;396132;-80
2021/03/15 23:02:26;;;;;;;0.80;0.40;;;;;;;4.08;100.00;98988.90;3896348;74;383538;-80
2021/03/15 23:07:48;;;;;;;1.53;0.70;;;;;;;4.03;100.00;99008.81;3896012;74;390023;-81
2021/03/15 23:13:11;;;;;;;0.90;0.73;;;;;;;3.92;100.00;99015.18;3915788;72;383598;-80
2021/03/15 23:18:32;;;;;;;4.60;1.53;;;;;;;3.90;100.00;99016.10;3895446;75;391904;-81
2021/03/15 23:23:55;;;;;;;0.80;0.50;;;;;;;3.85;100.00;99023.20;3896528;73;383581;-81
2021/03/15 23:29:20;;;;;;;0.87;0.70;;;;;;;3.80;100.00;99024.82;3749893;77;383806;-80
2021/03/15 23:34:40;;;;;;;0.87;0.57;;;;;;;3.79;100.00;99027.35;3896552;74;383822;-80
2021/03/15 23:40:01;;;;;;;0.80;0.40;;;;;;;3.71;100.00;99041.36;3896388;74;383866;-80
2021/03/15 23:45:23;;;;;;;0.80;0.40;;;;;;;3.73;100.00;99050.52;3749769;78;383586;-80
2021/03/15 23:50:45;;;;;;;0.80;0.50;;;;;;;3.78;100.00;99059.78;3896739;74;383791;-80
2021/03/15 23:56:06;;;;;;;8.20;1.87;;;;;;;3.80;100.00;99062.91;3749482;77;383790;-80
